Time;durP1;ratioP1;P1;durP2;ratioP2;P2;SDS_P1;SDS_P2;PMS_P1;PMS_P2;Temp;Humidity;BMP_temperature;BMP_pressure;BME280_temperature;BME280_humidity;BME280_pressure;Samples;Min_cycle;Max_cycle;Signal;HPM_P1;HPM_P2
2022/04/14 00:01:53;;;;;;;82.70;48.25;;;;;;;8.19;100.00;99366.36;1773077;81;21784;-89
2022/04/14 00:04:52;;;;;;;80.28;48.38;;;;;;;8.16;100.00;99378.98;1771301;81;21190;-88
2022/04/14 00:07:44;;;;;;;83.47;50.35;;;;;;;8.11;100.00;99382.25;1771199;81;21214;-89
2022/04/14 00:10:30;;;;;;;85.15;51.08;;;;;;;8.09;100.00;99387.53;1769939;81;21793;-89
2022/04/14 00:13:24;;;;;;;92.47;50.98;;;;;;;8.07;100.00;99396.41;1770106;81;21261;-88
2022/04/14 00:16:29;;;;;;;89.85;49.13;;;;;;;8.07;100.00;99399.98;1771117;81;21843;-88
2022/04/14 00:19:35;;;;;;;86.55;51.68;;;;;;;8.05;100.00;99395.25;1769391;81;21197;-88
2022/04/14 00:22:41;;;;;;;94.67;51.92;;;;;;;8.03;100.00;99396.44;1770450;81;21206;-88
2022/04/14 00:25:48;;;;;;;93.67;49.90;;;;;;;8.03;100.00;99395.08;1769474;81;21728;-89
2022/04/14 00:28:53;;;;;;;75.40;45.28;;;;;;;8.02;100.00;99408.38;1770844;81;21241;-87
2022/04/14 00:32:00;;;;;;;73.67;46.02;;;;;;;8.01;100.00;99409.41;1776310;81;21249;-88
2022/04/14 00:35:05;;;;;;;72.62;42.90;;;;;;;8.00;100.00;99409.05;1776373;81;21170;-89
2022/04/14 00:38:11;;;;;;;77.60;44.08;;;;;;;8.01;100.00;99413.49;1776362;81;21190;-89
2022/04/14 00:41:17;;;;;;;69.97;43.17;;;;;;;8.00;100.00;99408.56;1774827;80;21269;-88
2022/04/14 00:44:23;;;;;;;69.17;43.92;;;;;;;8.01;100.00;99409.41;1774900;81;21190;-89
2022/04/14 00:47:29;;;;;;;72.30;43.63;;;;;;;8.01;100.00;99418.94;1774680;81;21792;-88
2022/04/14 00:50:36;;;;;;;69.35;42.53;;;;;;;7.99;100.00;99408.72;1776740;81;21301;-88
2022/04/14 00:53:42;;;;;;;70.42;42.67;;;;;;;8.00;100.00;99413.13;1775414;81;21198;-89
2022/04/14 00:56:49;;;;;;;72.72;45.20;;;;;;;7.99;100.00;99418.25;1774856;81;21713;-89
2022/04/14 00:59:54;;;;;;;71.28;44.33;;;;;;;7.98;100.00;99412.48;1775000;81;22519;-89
2022/04/14 01:03:01;;;;;;;75.28;43.42;;;;;;;7.95;100.00;99408.23;1775011;80;21190;-88
2022/04/14 01:06:06;;;;;;;67.62;42.17;;;;;;;7.96;100.00;99421.36;1776587;81;21261;-89
2022/04/14 01:09:18;;;;;;;66.77;42.95;;;;;;;7.94;100.00;99433.77;1776330;81;21792;-88
2022/04/14 01:12:24;;;;;;;75.50;44.20;;;;;;;7.93;100.00;99438.38;1775915;81;21198;-89
2022/04/14 01:15:30;;;;;;;69.35;43.33;;;;;;;7.95;100.00;99435.47;1777738;81;21190;-88
2022/04/14 01:18:36;;;;;;;63.10;40.75;;;;;;;7.96;100.00;99419.48;1780393;81;21197;-87
2022/04/14 01:21:42;;;;;;;60.73;38.42;;;;;;;7.94;100.00;99430.53;1780535;81;21142;-84
2022/04/14 01:24:48;;;;;;;63.20;40.92;;;;;;;7.92;100.00;99423.08;1780924;81;21154;-87
2022/04/14 01:27:55;;;;;;;63.65;40.17;;;;;;;7.91;100.00;99434.16;1775683;81;21217;-89
2022/04/14 01:31:01;;;;;;;67.70;43.17;;;;;;;7.88;100.00;99438.07;1773798;80;21249;-90
2022/04/14 01:34:07;;;;;;;64.55;41.50;;;;;;;7.86;100.00;99442.87;1770531;81;21221;-88
2022/04/14 01:37:14;;;;;;;69.92;42.60;;;;;;;7.86;100.00;99440.14;1769925;81;21226;-90
2022/04/14 01:40:19;;;;;;;72.20;43.73;;;;;;;7.82;100.00;99433.36;1770715;81;21206;-88
2022/04/14 01:43:18;;;;;;;77.60;46.73;;;;;;;7.81;100.00;99445.28;1769541;81;21206;-88
2022/04/14 01:46:12;;;;;;;76.07;46.55;;;;;;;7.81;100.00;99449.84;1771064;81;21190;-88
2022/04/14 01:48:59;;;;;;;79.25;45.70;;;;;;;7.78;100.00;99452.44;1746001;81;21721;-88
2022/04/14 01:51:52;;;;;;;71.75;44.15;;;;;;;7.78;100.00;99457.88;1771045;81;21190;-87
2022/04/14 01:54:38;;;;;;;77.75;43.45;;;;;;;7.77;100.00;99475.77;1770063;81;21241;-89
2022/04/14 01:57:30;;;;;;;65.52;42.88;;;;;;;7.74;100.00;99464.70;1770995;81;21254;-89
2022/04/14 02:00:17;;;;;;;69.42;44.88;;;;;;;7.73;100.00;99462.17;1770887;81;21190;-88
2022/04/14 02:03:11;;;;;;;70.90;45.25;;;;;;;7.71;100.00;99464.20;1770884;81;21752;-89
2022/04/14 02:05:57;;;;;;;69.95;41.60;;;;;;;7.68;100.00;99476.31;1769472;81;21832;-87
2022/04/14 02:08:50;;;;;;;72.35;45.23;;;;;;;7.66;100.00;99449.77;1769517;81;21210;-88
2022/04/14 02:11:36;;;;;;;72.15;44.60;;;;;;;7.63;100.00;99459.67;1770973;81;21186;-88
2022/04/14 02:14:36;;;;;;;72.17;43.25;;;;;;;7.60;100.00;99466.82;1769821;81;21198;-88
2022/04/14 02:17:42;;;;;;;69.30;42.67;;;;;;;7.58;100.00;99475.17;1769423;81;21201;-88
2022/04/14 02:20:47;;;;;;;67.40;44.60;;;;;;;7.57;100.00;99476.69;1769421;81;21769;-89
2022/04/14 02:23:54;;;;;;;73.07;44.70;;;;;;;7.57;100.00;99475.33;1769344;81;21200;-89
2022/04/14 02:27:00;;;;;;;73.95;42.95;;;;;;;7.57;100.00;99486.22;1769474;81;21193;-88
2022/04/14 02:30:07;;;;;;;67.65;41.90;;;;;;;7.57;100.00;99480.77;1769809;81;21223;-88
2022/04/14 02:33:14;;;;;;;66.07;42.83;;;;;;;7.56;100.00;99477.20;1759835;80;21223;-87
2022/04/14 02:36:20;;;;;;;69.75;40.35;;;;;;;7.56;100.00;99477.72;1753200;82;21803;-87
2022/04/14 02:39:25;;;;;;;70.00;42.90;;;;;;;7.57;100.00;99486.22;1753107;82;21183;-89
2022/04/14 02:42:33;;;;;;;70.45;41.88;;;;;;;7.56;100.00;99488.61;1753508;82;21235;-88
2022/04/14 02:45:39;;;;;;;69.87;41.40;;;;;;;7.56;100.00;99490.81;1752123;82;21188;-88
2022/04/14 02:48:45;;;;;;;69.10;39.78;;;;;;;7.57;100.00;99501.19;1753036;82;21177;-89
2022/04/14 02:51:52;;;;;;;65.32;40.38;;;;;;;7.56;100.00;99494.90;1753057;82;21683;-88
2022/04/14 02:54:57;;;;;;;67.55;43.85;;;;;;;7.54;100.00;99503.77;1752798;82;21223;-89
2022/04/14 02:58:04;;;;;;;77.90;42.50;;;;;;;7.55;100.00;99488.28;1751742;82;21175;-88
2022/04/14 03:01:10;;;;;;;74.40;40.67;;;;;;;7.54;100.00;99512.44;1751777;82;21791;-89
2022/04/14 03:04:16;;;;;;;64.75;40.38;;;;;;;7.53;100.00;99513.44;1751734;82;21192;-88
2022/04/14 03:07:22;;;;;;;72.95;43.28;;;;;;;7.52;100.00;99532.16;1753197;82;21192;-89
2022/04/14 03:10:29;;;;;;;68.10;41.70;;;;;;;7.51;100.00;99528.59;1753532;82;21188;-89
2022/04/14 03:13:36;;;;;;;70.40;42.45;;;;;;;7.53;100.00;99541.53;1751657;82;21711;-89
2022/04/14 03:16:42;;;;;;;65.22;39.98;;;;;;;7.56;100.00;99547.12;1751695;82;21727;-89
2022/04/14 03:19:48;;;;;;;69.82;41.92;;;;;;;7.55;100.00;99539.47;1753153;82;21168;-89
2022/04/14 03:22:47;;;;;;;68.87;41.58;;;;;;;7.58;100.00;99549.17;1751986;82;21220;-88
2022/04/14 03:25:53;;;;;;;59.40;38.40;;;;;;;7.58;100.00;99559.55;1752353;82;21176;-88
2022/04/14 03:28:59;;;;;;;65.70;40.35;;;;;;;7.59;100.00;99552.22;1753086;82;21266;-89
2022/04/14 03:32:05;;;;;;;56.80;38.25;;;;;;;7.59;100.00;99557.66;1753069;82;21228;-88
2022/04/14 03:35:11;;;;;;;62.73;39.25;;;;;;;7.58;100.00;99580.47;1769720;80;21728;-88
2022/04/14 03:38:11;;;;;;;66.92;39.25;;;;;;;7.58;100.00;99560.06;1770889;81;21194;-89
2022/04/14 03:41:06;;;;;;;56.05;35.63;;;;;;;7.57;100.00;99571.43;1767364;81;21225;-89
2022/04/14 03:44:12;;;;;;;70.83;39.88;;;;;;;7.55;100.00;99564.48;1769356;81;21269;-87
2022/04/14 03:47:17;;;;;;;67.92;39.23;;;;;;;7.56;100.00;99571.61;1770808;81;21190;-88
2022/04/14 03:50:24;;;;;;;59.08;36.68;;;;;;;7.53;100.00;99567.38;1771205;81;21175;-88
2022/04/14 03:53:29;;;;;;;65.00;39.15;;;;;;;7.54;100.00;99573.67;1770875;81;21245;-88
2022/04/14 03:56:35;;;;;;;59.50;37.73;;;;;;;7.56;100.00;99582.50;1769314;81;21277;-88
2022/04/14 03:59:40;;;;;;;56.80;37.53;;;;;;;7.55;100.00;99596.63;1770978;81;21171;-87
2022/04/14 04:02:47;;;;;;;61.35;39.30;;;;;;;7.57;100.00;99595.92;1770825;81;21186;-88
2022/04/14 04:05:54;;;;;;;62.40;37.85;;;;;;;7.59;100.00;99602.06;1772657;81;21635;-87
2022/04/14 04:09:00;;;;;;;76.05;40.78;;;;;;;7.62;100.00;99608.53;1771459;81;21178;-88
2022/04/14 04:12:07;;;;;;;62.78;36.48;;;;;;;7.64;100.00;99620.59;1773333;81;21190;-88
2022/04/14 04:15:15;;;;;;;62.35;37.95;;;;;;;7.62;100.00;99622.62;1769790;81;21201;-88
2022/04/14 04:18:21;;;;;;;64.60;37.50;;;;;;;7.63;100.00;99620.26;1769866;81;21209;-89
2022/04/14 04:21:29;;;;;;;64.67;38.73;;;;;;;7.61;100.00;99614.97;1769927;81;21784;-88
2022/04/14 04:24:35;;;;;;;68.00;38.40;;;;;;;7.60;100.00;99619.23;1769744;81;21721;-90
2022/04/14 04:27:42;;;;;;;65.50;38.78;;;;;;;7.60;100.00;99630.97;1771210;81;21237;-88
2022/04/14 04:30:48;;;;;;;62.35;39.58;;;;;;;7.59;100.00;99620.27;1770488;81;21225;-88
2022/04/14 04:33:54;;;;;;;62.60;37.45;;;;;;;7.58;100.00;99631.66;1770837;81;21186;-88
2022/04/14 04:37:00;;;;;;;55.55;35.17;;;;;;;7.59;100.00;99636.59;1769313;81;21284;-89
2022/04/14 04:40:07;;;;;;;58.68;35.60;;;;;;;7.57;100.00;99642.70;1770784;81;21225;-88
2022/04/14 04:43:15;;;;;;;61.35;35.43;;;;;;;7.54;100.00;99669.77;1770885;81;21729;-89
2022/04/14 04:46:21;;;;;;;57.95;35.23;;;;;;;7.53;100.00;99663.12;1770305;81;21202;-88
2022/04/14 04:49:27;;;;;;;58.30;35.92;;;;;;;7.52;100.00;99676.39;1770914;81;21307;-87
2022/04/14 04:52:33;;;;;;;56.40;36.40;;;;;;;7.52;100.00;99661.42;1770781;81;21187;-87
2022/04/14 04:55:39;;;;;;;57.45;33.88;;;;;;;7.50;100.00;99670.28;1770988;81;21190;-89
2022/04/14 04:58:45;;;;;;;51.63;33.45;;;;;;;7.49;100.00;99671.31;1769334;81;21824;-87
2022/04/14 05:01:50;;;;;;;57.50;34.95;;;;;;;7.47;100.00;99666.53;1769925;81;21225;-87
2022/04/14 05:04:56;;;;;;;53.23;33.85;;;;;;;7.45;100.00;99685.77;1770880;81;21186;-88
2022/04/14 05:08:05;;;;;;;52.33;32.63;;;;;;;7.45;100.00;99683.56;1769566;81;21205;-89
2022/04/14 05:11:12;;;;;;;46.63;30.95;;;;;;;7.45;100.00;99688.48;1769237;81;21238;-88
2022/04/14 05:14:18;;;;;;;47.33;31.37;;;;;;;7.43;100.00;99685.95;1769297;81;21218;-88
2022/04/14 05:17:23;;;;;;;60.03;34.53;;;;;;;7.43;100.00;99696.84;1769166;81;21289;-88
2022/04/14 05:20:29;;;;;;;49.50;30.02;;;;;;;7.47;100.00;99705.99;1771660;81;21207;-89
2022/04/14 05:23:36;;;;;;;45.17;30.02;;;;;;;7.48;100.00;99719.45;1770908;81;21225;-87
2022/04/14 05:26:44;;;;;;;48.10;31.10;;;;;;;7.50;100.00;99724.71;1769385;81;21205;-86
2022/04/14 05:29:49;;;;;;;43.50;30.15;;;;;;;7.50;100.00;99713.83;1771457;81;21219;-90
2022/04/14 05:32:55;;;;;;;43.45;30.10;;;;;;;7.50;100.00;99727.44;1734226;82;21213;-85
2022/04/14 05:36:04;;;;;;;44.67;28.00;;;;;;;7.49;100.00;99718.42;1784872;80;21193;-85
2022/04/14 05:39:09;;;;;;;41.65;28.50;;;;;;;7.48;100.00;99727.61;1785824;80;21190;-87
2022/04/14 05:42:15;;;;;;;41.08;28.17;;;;;;;7.49;100.00;99738.83;1784255;80;21721;-89
2022/04/14 05:45:21;;;;;;;45.48;29.32;;;;;;;7.50;100.00;99747.33;1784340;80;21225;-88
2022/04/14 05:48:28;;;;;;;45.12;29.05;;;;;;;7.49;100.00;99759.76;1783636;80;21648;-89
2022/04/14 05:51:35;;;;;;;46.42;28.45;;;;;;;7.48;100.00;99748.51;1769610;81;21509;-89
2022/04/14 05:54:41;;;;;;;44.40;29.90;;;;;;;7.49;100.00;99763.84;1769604;79;21162;-89
2022/04/14 05:57:47;;;;;;;47.13;30.08;;;;;;;7.49;100.00;99757.03;1768967;81;21209;-88
2022/04/14 06:00:55;;;;;;;39.95;28.25;;;;;;;7.48;100.00;99752.59;1769692;81;21158;-89
2022/04/14 06:04:01;;;;;;;48.10;30.55;;;;;;;7.49;100.00;99744.79;1769859;81;21224;-89
2022/04/14 06:07:07;;;;;;;43.28;28.98;;;;;;;7.49;100.00;99737.98;1768420;81;21252;-85
2022/04/14 06:10:13;;;;;;;43.75;29.30;;;;;;;7.48;100.00;99742.58;1769846;81;21736;-86
2022/04/14 06:13:18;;;;;;;42.98;28.23;;;;;;;7.50;100.00;99738.32;1770108;81;21201;-87
2022/04/14 06:16:25;;;;;;;45.75;28.07;;;;;;;7.52;100.00;99738.98;1768384;81;22052;-89
2022/04/14 06:19:31;;;;;;;37.98;27.22;;;;;;;7.54;100.00;99757.37;1769732;81;21174;-89
2022/04/14 06:22:37;;;;;;;45.05;28.20;;;;;;;7.55;100.00;99768.59;1768145;81;21198;-88
2022/04/14 06:25:49;;;;;;;40.20;27.20;;;;;;;7.56;100.00;99757.52;1774256;81;21489;-88
2022/04/14 06:28:52;;;;;;;39.05;25.10;;;;;;;7.59;100.00;99774.04;1765894;81;21555;-88
2022/04/14 06:31:58;;;;;;;41.50;25.37;;;;;;;7.64;100.00;99756.69;1730003;82;21541;-87
2022/04/14 06:35:06;;;;;;;40.30;25.27;;;;;;;7.70;100.00;99780.48;1714318;82;21183;-87
2022/04/14 06:38:11;;;;;;;38.95;25.00;;;;;;;7.75;100.00;99776.74;1732067;81;21217;-87
2022/04/14 06:41:19;;;;;;;41.37;27.37;;;;;;;7.78;100.00;99776.92;1768038;80;21810;-87
2022/04/14 06:44:20;;;;;;;39.65;26.07;;;;;;;7.80;100.00;99790.69;1770379;79;21165;-86
2022/04/14 06:47:13;;;;;;;37.35;25.85;;;;;;;7.80;100.00;99776.23;1769645;79;21217;-89
2022/04/14 06:50:19;;;;;;;;;;;;;;;7.78;100.00;99780.50;1770994;80;21175;-87
2022/04/14 06:53:24;;;;;;;34.98;24.92;;;;;;;7.80;100.00;99798.86;1794427;79;20274;-87
2022/04/14 06:56:30;;;;;;;38.33;25.65;;;;;;;7.77;100.00;99793.78;1780663;79;21140;-88
2022/04/14 06:59:37;;;;;;;38.28;26.00;;;;;;;7.74;100.00;99805.51;1779990;80;21269;-88
2022/04/14 07:02:55;;;;;;;38.83;23.98;;;;;;;7.71;100.00;99795.80;1766651;81;21189;-87
2022/04/14 07:06:01;;;;;;;44.27;26.90;;;;;;;7.72;100.00;99804.84;1767921;81;21201;-87
2022/04/14 07:09:07;;;;;;;35.05;22.50;;;;;;;7.73;100.00;99796.50;1768445;81;21778;-89
2022/04/14 07:12:15;;;;;;;37.30;24.87;;;;;;;7.76;100.00;99796.65;1768537;81;21193;-89
2022/04/14 07:15:24;;;;;;;37.63;24.82;;;;;;;7.77;100.00;99792.41;1786065;79;21202;-88
2022/04/14 07:18:31;;;;;;;36.13;24.00;;;;;;;7.83;100.00;99794.44;1770521;79;21209;-89
2022/04/14 07:21:36;;;;;;;35.98;23.70;;;;;;;7.91;100.00;99799.89;1780407;79;21164;-88
2022/04/14 07:24:43;;;;;;;35.28;25.00;;;;;;;7.96;100.00;99810.78;1769616;81;21913;-89
2022/04/14 07:27:48;;;;;;;35.20;23.70;;;;;;;7.94;100.00;99819.10;1769882;79;21196;-86
2022/04/14 07:30:54;;;;;;;32.55;22.52;;;;;;;7.94;100.00;99817.75;1769195;81;21722;-88
2022/04/14 07:34:01;;;;;;;32.30;22.80;;;;;;;7.92;100.00;99819.28;1768701;80;21277;-87
2022/04/14 07:37:06;;;;;;;33.00;23.55;;;;;;;7.90;100.00;99829.52;1794658;79;21184;-86
2022/04/14 07:40:12;;;;;;;32.98;22.73;;;;;;;7.91;100.00;99827.64;1767778;81;21196;-89
2022/04/14 07:43:19;;;;;;;40.00;24.23;;;;;;;7.92;100.00;99827.97;1792007;79;21232;-88
2022/04/14 07:46:25;;;;;;;34.48;22.80;;;;;;;7.92;100.00;99832.91;1800246;79;21244;-87
2022/04/14 07:49:32;;;;;;;34.43;22.90;;;;;;;7.92;100.00;99847.03;1769905;79;22181;-86
2022/04/14 07:52:37;;;;;;;35.70;22.32;;;;;;;7.89;100.00;99837.83;1769831;81;21193;-89
2022/04/14 07:55:43;;;;;;;32.88;22.73;;;;;;;7.88;100.00;99835.63;1768341;81;21208;-90
2022/04/14 07:58:49;;;;;;;35.30;24.10;;;;;;;7.89;100.00;99847.36;1768351;81;21212;-87
2022/04/14 08:02:00;;;;;;;39.03;22.17;;;;;;;7.89;100.00;99846.00;1796432;79;21189;-89
2022/04/14 08:05:05;;;;;;;35.92;23.57;;;;;;;7.90;100.00;99851.30;1779107;79;21199;-85
2022/04/14 08:08:17;;;;;;;29.82;21.95;;;;;;;7.93;100.00;99834.59;1768007;81;21214;-86
2022/04/14 08:11:23;;;;;;;31.62;22.05;;;;;;;8.00;100.00;99848.41;1769284;81;21198;-85
2022/04/14 08:14:29;;;;;;;30.30;22.15;;;;;;;8.03;100.00;99848.55;1768317;81;21219;-86
2022/04/14 08:17:36;;;;;;;32.65;21.70;;;;;;;8.08;100.00;99849.73;1769642;81;21206;-87
2022/04/14 08:20:43;;;;;;;36.00;21.87;;;;;;;8.16;100.00;99868.80;1770978;81;21716;-87
2022/04/14 08:23:52;;;;;;;27.52;20.92;;;;;;;8.22;100.00;99875.95;1769593;81;21218;-89
2022/04/14 08:27:00;;;;;;;33.63;23.05;;;;;;;8.28;100.00;99862.99;1768722;81;21804;-88
2022/04/14 08:30:05;;;;;;;28.52;21.15;;;;;;;8.33;100.00;99856.03;1779112;79;21752;-89
2022/04/14 08:33:16;;;;;;;30.88;21.93;;;;;;;8.35;100.00;99864.87;1800425;79;21189;-89
2022/04/14 08:36:22;;;;;;;29.00;19.35;;;;;;;8.38;100.00;99860.48;1796845;79;21180;-88
2022/04/14 08:39:29;;;;;;;30.23;21.20;;;;;;;8.39;100.00;99862.69;1768695;79;21192;-87
2022/04/14 08:42:42;;;;;;;30.88;21.73;;;;;;;8.38;100.00;99861.84;1767144;80;21189;-89
2022/04/14 08:45:55;;;;;;;30.77;21.42;;;;;;;8.40;100.00;99862.50;1769792;81;21220;-89
2022/04/14 08:49:00;;;;;;;32.08;21.17;;;;;;;8.43;100.00;99873.07;1769903;79;21177;-89
2022/04/14 08:52:06;;;;;;;27.85;20.25;;;;;;;8.47;100.00;99868.61;1792939;79;21210;-88
2022/04/14 08:55:14;;;;;;;34.30;21.75;;;;;;;8.48;100.00;99873.06;1750978;81;21763;-89
2022/04/14 08:58:26;;;;;;;30.90;21.65;;;;;;;8.49;100.00;99869.31;1773992;79;21220;-89
2022/04/14 09:01:35;;;;;;;29.55;20.90;;;;;;;8.54;100.00;99875.09;1800796;79;21520;-87
2022/04/14 09:04:43;;;;;;;;;;;;;;;8.61;100.00;99863.81;1793366;79;21294;-87
2022/04/14 09:07:49;;;;;;;31.42;21.68;;;;;;;8.68;100.00;99877.09;1801085;79;20197;-87
2022/04/14 09:10:57;;;;;;;32.13;21.70;;;;;;;8.68;100.00;99879.83;1799439;79;21185;-89
2022/04/14 09:14:03;;;;;;;30.37;20.17;;;;;;;8.70;100.00;99882.73;1776345;79;21253;-88
2022/04/14 09:17:10;;;;;;;30.20;21.62;;;;;;;8.74;100.00;99899.56;1768772;79;21182;-87
2022/04/14 09:20:48;;;;;;;31.97;21.57;;;;;;;8.74;100.00;99883.72;1769998;81;21823;-86
2022/04/14 09:23:58;;;;;;;32.67;21.42;;;;;;;8.76;100.00;99890.72;1768383;81;21244;-88
2022/04/14 09:27:04;;;;;;;28.47;20.57;;;;;;;8.82;100.00;99883.19;1769148;79;21373;-89
2022/04/14 09:30:11;;;;;;;31.25;21.42;;;;;;;8.95;100.00;99892.19;1784909;79;21196;-89
2022/04/14 09:33:25;;;;;;;27.48;20.92;;;;;;;9.04;100.00;99902.56;1771271;79;21512;-86
2022/04/14 09:36:32;;;;;;;29.65;19.23;;;;;;;9.10;100.00;99894.51;1770396;81;21550;-89
2022/04/14 09:39:37;;;;;;;31.68;19.90;;;;;;;9.12;100.00;99897.05;1769749;81;21193;-88
2022/04/14 09:42:49;;;;;;;33.95;20.97;;;;;;;9.11;100.00;99897.56;1771198;79;21204;-89
2022/04/14 09:45:55;;;;;;;26.25;19.98;;;;;;;9.11;100.00;99907.12;1787383;79;21670;-89
2022/04/14 09:49:15;;;;;;;29.12;19.45;;;;;;;9.09;100.00;99907.82;1753814;79;21181;-87
2022/04/14 09:52:21;;;;;;;28.02;20.08;;;;;;;9.09;100.00;99906.45;1768655;79;21518;-86
2022/04/14 09:55:27;;;;;;;32.33;22.22;;;;;;;9.14;100.00;99916.84;1769993;79;21144;-89
2022/04/14 09:58:33;;;;;;;29.35;21.25;;;;;;;9.17;100.00;99906.91;1768347;81;21251;-88
2022/04/14 10:01:40;;;;;;;31.40;20.43;;;;;;;9.19;100.00;99928.92;1768375;81;21179;-87
2022/04/14 10:04:45;;;;;;;37.13;20.25;;;;;;;9.24;100.00;99911.17;1768979;81;21783;-89
2022/04/14 10:07:38;;;;;;;28.52;18.55;;;;;;;9.27;100.00;99930.78;1770365;81;21176;-87
2022/04/14 10:10:45;;;;;;;27.85;20.48;;;;;;;9.29;100.00;99938.27;1781156;79;21176;-89
2022/04/14 10:13:51;;;;;;;29.65;18.77;;;;;;;9.32;100.00;99944.74;1800139;79;21267;-89
2022/04/14 10:17:02;;;;;;;27.52;18.50;;;;;;;9.43;100.00;99938.03;1801815;79;21228;-89
2022/04/14 10:20:07;;;;;;;31.87;19.45;;;;;;;9.50;100.00;99937.64;1802160;79;21217;-88
2022/04/14 10:23:14;;;;;;;26.25;18.77;;;;;;;9.58;100.00;99943.58;1802059;79;21758;-89
2022/04/14 10:26:20;;;;;;;27.73;18.42;;;;;;;9.66;100.00;99950.38;1801737;79;21228;-88
2022/04/14 10:29:26;;;;;;;26.55;18.05;;;;;;;9.71;100.00;99947.95;1801843;79;21213;-89
2022/04/14 10:32:32;;;;;;;24.55;18.05;;;;;;;9.71;100.00;99958.88;1800283;79;21213;-89
2022/04/14 10:35:39;;;;;;;27.73;17.92;;;;;;;9.73;100.00;99956.80;1784695;79;21735;-87
2022/04/14 10:38:46;;;;;;;24.20;17.90;;;;;;;9.72;100.00;99961.94;1802193;79;21176;-87
2022/04/14 10:41:56;;;;;;;25.95;17.98;;;;;;;9.69;100.00;99966.38;1800530;79;21200;-87
2022/04/14 10:45:02;;;;;;;26.07;18.25;;;;;;;9.63;100.00;99965.22;1774454;81;21181;-88
2022/04/14 10:48:08;;;;;;;28.32;18.73;;;;;;;9.63;100.00;99969.32;1775980;81;21756;-88
2022/04/14 10:51:36;;;;;;;24.12;18.50;;;;;;;9.63;100.00;99971.20;1775801;81;21310;-88
2022/04/14 10:55:06;;;;;;;25.88;18.30;;;;;;;9.63;100.00;99974.78;1775665;81;21185;-87
2022/04/14 10:58:13;;;;;;;22.77;17.50;;;;;;;9.60;100.00;99971.58;1775636;81;21189;-86
2022/04/14 11:01:23;;;;;;;20.05;16.12;;;;;;;9.58;100.00;99992.73;1775161;81;21153;-85
2022/04/14 11:04:40;;;;;;;;;;;;;;;9.55;100.00;99988.98;1776641;80;21196;-86
2022/04/14 11:07:46;;;;;;;23.62;16.32;;;;;;;9.52;100.00;99982.02;1773896;81;20219;-89
2022/04/14 11:11:19;;;;;;;24.25;16.25;;;;;;;9.48;100.00;99986.97;1775194;81;21763;-86
2022/04/14 11:14:32;;;;;;;25.90;17.67;;;;;;;9.44;100.00;99995.17;1716942;82;21173;-89
2022/04/14 11:17:59;;;;;;;20.00;15.72;;;;;;;9.43;100.00;100004.91;1712479;83;21189;-85
2022/04/14 11:21:01;;;;;;;25.57;16.57;;;;;;;9.44;100.00;100002.52;1741033;82;21176;-89
2022/04/14 11:24:08;;;;;;;22.02;16.55;;;;;;;9.40;100.00;100006.62;1712465;83;21727;-88
2022/04/14 11:27:30;;;;;;;22.27;16.97;;;;;;;9.40;100.00;100022.48;1668826;84;21259;-87
2022/04/14 11:30:49;;;;;;;25.48;19.50;;;;;;;9.39;100.00;100019.94;1717422;83;21186;-87
2022/04/14 11:33:53;;;;;;;27.52;16.65;;;;;;;9.39;100.00;100030.34;1718858;83;21200;-87
2022/04/14 11:36:50;;;;;;;22.58;16.75;;;;;;;9.38;100.00;100027.28;1701816;84;21745;-88
2022/04/14 11:40:22;;;;;;;27.55;17.92;;;;;;;9.40;100.00;100029.30;1714841;83;21150;-86
2022/04/14 11:43:29;;;;;;;23.65;17.45;;;;;;;9.46;100.00;100034.09;1686475;84;21214;-88
2022/04/14 11:46:39;;;;;;;20.10;16.37;;;;;;;9.53;100.00;100048.39;1715528;82;21767;-87
2022/04/14 11:49:46;;;;;;;21.45;15.90;;;;;;;9.55;100.00;100040.86;1796762;80;21399;-86
2022/04/14 11:52:52;;;;;;;23.02;16.90;;;;;;;9.54;100.00;100037.80;1779910;80;21731;-88
2022/04/14 11:55:59;;;;;;;20.95;15.43;;;;;;;9.53;100.00;100045.66;1786739;79;21180;-89
2022/04/14 11:59:08;;;;;;;20.97;14.95;;;;;;;9.52;100.00;100040.72;1787552;79;21141;-89
2022/04/14 12:02:18;;;;;;;24.65;16.27;;;;;;;9.51;100.00;100045.84;1808011;79;21279;-88
2022/04/14 12:05:26;;;;;;;20.40;15.13;;;;;;;9.54;100.00;100050.08;1813083;79;21236;-88
2022/04/14 12:08:32;;;;;;;23.38;16.30;;;;;;;9.54;100.00;100046.84;1812896;79;21224;-89
2022/04/14 12:11:37;;;;;;;20.65;15.48;;;;;;;9.56;100.00;100042.07;1813437;79;21173;-89
2022/04/14 12:14:45;;;;;;;21.82;14.73;;;;;;;9.51;100.00;100060.86;1813648;79;21165;-87
2022/04/14 12:17:46;;;;;;;22.05;16.55;;;;;;;9.48;100.00;100069.39;1811236;79;21271;-88
2022/04/14 12:20:47;;;;;;;24.40;17.35;;;;;;;9.41;100.00;100066.52;1812691;79;21187;-88
2022/04/14 12:23:58;;;;;;;23.87;16.42;;;;;;;9.38;100.00;100066.86;1811316;79;21219;-90
2022/04/14 12:27:06;;;;;;;28.07;16.30;;;;;;;9.37;100.00;100070.63;1814406;79;21724;-89
2022/04/14 12:30:17;;;;;;;25.52;16.40;;;;;;;9.37;100.00;100076.08;1813599;79;21239;-88
2022/04/14 12:33:27;;;;;;;20.55;15.35;;;;;;;9.35;100.00;100074.02;1813465;79;21204;-88
2022/04/14 12:36:43;;;;;;;20.55;15.98;;;;;;;9.33;100.00;100078.81;1813406;79;21180;-90
2022/04/14 12:40:13;;;;;;;21.55;16.15;;;;;;;9.29;100.00;100087.52;1812031;79;21172;-89
2022/04/14 12:43:23;;;;;;;19.17;15.03;;;;;;;9.26;100.00;100076.94;1813287;79;21224;-88
2022/04/14 12:46:46;;;;;;;26.12;16.32;;;;;;;9.28;100.00;100079.00;1805745;79;21759;-89
2022/04/14 12:49:54;;;;;;;23.50;16.27;;;;;;;9.28;100.00;100083.95;1802395;79;21260;-89
2022/04/14 12:53:04;;;;;;;22.55;15.85;;;;;;;9.24;100.00;100092.66;1778667;79;21192;-89
2022/04/14 12:56:20;;;;;;;;;;;;;;;9.19;100.00;100086.34;1805251;79;21181;-90
2022/04/14 12:59:27;;;;;;;19.95;14.95;;;;;;;9.17;100.00;100097.45;1802565;79;21134;-88
2022/04/14 13:02:33;;;;;;;20.27;15.40;;;;;;;9.17;100.00;100091.11;1802593;79;21229;-88
2022/04/14 13:05:40;;;;;;;21.12;15.28;;;;;;;9.20;100.00;100100.33;1802479;79;21173;-88
2022/04/14 13:08:46;;;;;;;22.82;15.53;;;;;;;9.22;100.00;100103.72;1801091;79;21177;-89
2022/04/14 13:11:52;;;;;;;24.32;15.58;;;;;;;9.26;100.00;100092.80;1802700;79;21290;-89
2022/04/14 13:14:52;;;;;;;24.77;15.98;;;;;;;9.26;100.00;100092.80;1801242;79;21181;-90
2022/04/14 13:18:01;;;;;;;21.80;15.18;;;;;;;9.30;100.00;100104.23;1801246;79;21712;-88
2022/04/14 13:21:11;;;;;;;19.23;13.85;;;;;;;9.33;100.00;100097.08;1801166;79;21177;-89
2022/04/14 13:24:17;;;;;;;21.27;15.05;;;;;;;9.41;100.00;100092.94;1801849;79;21213;-87
2022/04/14 13:27:23;;;;;;;19.23;15.28;;;;;;;9.48;100.00;100104.88;1802252;79;21213;-89
2022/04/14 13:30:28;;;;;;;19.73;15.08;;;;;;;9.51;100.00;100099.09;1802679;79;21181;-90
2022/04/14 13:33:35;;;;;;;19.32;14.80;;;;;;;9.54;100.00;100108.78;1802552;79;21724;-88
2022/04/14 13:36:39;;;;;;;18.95;14.95;;;;;;;9.57;100.00;100100.26;1802676;79;21161;-89
2022/04/14 13:39:45;;;;;;;20.70;14.93;;;;;;;9.59;100.00;100108.59;1802617;79;21178;-89
2022/04/14 13:42:54;;;;;;;17.70;13.98;;;;;;;9.61;100.00;100107.08;1802107;79;21189;-89
2022/04/14 13:46:01;;;;;;;16.95;13.48;;;;;;;9.62;100.00;100110.14;1801671;79;21232;-87
2022/04/14 13:49:06;;;;;;;19.23;15.63;;;;;;;9.63;100.00;100107.74;1802828;79;21157;-88
2022/04/14 13:52:13;;;;;;;20.52;14.45;;;;;;;9.63;100.00;100112.69;1802849;79;21224;-89
2022/04/14 13:55:22;;;;;;;21.23;13.90;;;;;;;9.67;100.00;100111.83;1800983;79;21372;-88
2022/04/14 13:58:28;;;;;;;18.75;15.13;;;;;;;9.68;100.00;100113.53;1801089;79;21306;-88
2022/04/14 14:01:27;;;;;;;20.23;15.55;;;;;;;9.67;100.00;100118.66;1802647;79;21212;-89
2022/04/14 14:04:32;;;;;;;25.63;15.80;;;;;;;9.67;100.00;100124.97;1802435;79;21200;-89
2022/04/14 14:07:38;;;;;;;17.65;14.73;;;;;;;9.67;100.00;100121.39;1802596;79;21165;-89
2022/04/14 14:10:44;;;;;;;22.05;15.38;;;;;;;9.68;100.00;100127.19;1801102;79;21180;-89
2022/04/14 14:13:52;;;;;;;23.05;15.58;;;;;;;9.71;100.00;100118.65;1801666;79;21189;-89
2022/04/14 14:17:00;;;;;;;24.98;16.77;;;;;;;9.76;100.00;100128.53;1801243;79;21252;-89